Search for airport 
image banner adimage banner adimage banner ad
image banner ad

PN63 - Limerick Generating Station

Located in Sanatoga, United States

ICAO - PN63, IATA -

Data provided by Airmate  

General information

Coordinates: N40°13'59" W75°34'59"
Elevation is 344 feet MSL.
 
View others Airports in Pennsylvania

Operational data

Special qualification required
Current time UTC:
Current local time:
Weather at : KPTW - Heritage Field ( 2 km )
METAR: KPTW 071154Z AUTO 05005KT 10SM CLR 10/01 A2994 RMK AO2 SLP137 T01000006 10100 20039 55001
View NOTAMs / SUP AIP / TFR affecting this airport [VIEW]
Communications frequencies: [VIEW]

Runways:

Airport contact information

Address: Sanatoga United States

Satellite view of PN63